createdAt,value
2022-10-11T00:00:18.085Z,471.77
2022-10-11T00:03:06.561Z,452.77
2022-10-11T00:05:54.785Z,445.38
2022-10-11T00:08:44.042Z,463.27
2022-10-11T00:11:32.210Z,458.67
2022-10-11T00:14:20.137Z,455.85
2022-10-11T00:17:08.589Z,468.70
2022-10-11T00:19:56.527Z,477.88
2022-10-11T00:22:44.896Z,477.45
2022-10-11T00:25:34.137Z,449.73
2022-10-11T00:28:22.075Z,468.02
2022-10-11T00:31:12.994Z,494.83
2022-10-11T00:34:00.918Z,459.98
2022-10-11T00:36:48.817Z,493.42
2022-10-11T00:39:36.840Z,458.25
2022-10-11T00:42:26.145Z,481.95
2022-10-11T00:45:59.549Z,471.88
2022-10-11T00:48:51.804Z,454.70
2022-10-11T00:51:46.311Z,457.67
2022-10-11T00:54:37.983Z,462.92
2022-10-11T00:57:30.893Z,462.65
2022-10-11T01:00:20.252Z,476.80
2022-10-11T01:03:08.208Z,473.23
2022-10-11T01:05:56.592Z,480.30
2022-10-11T01:08:45.281Z,463.88
2022-10-11T01:11:43.455Z,456.58
2022-10-11T01:14:55.175Z,489.30
2022-10-11T01:17:51.491Z,473.25
2022-10-11T01:20:51.221Z,475.08
2022-10-11T01:24:08.368Z,470.05
2022-10-11T01:27:30.354Z,456.27
2022-10-11T01:30:24.876Z,439.17
2022-10-11T01:33:25.026Z,451.85
2022-10-11T01:36:22.073Z,453.02
2022-10-11T01:39:15.549Z,447.25
2022-10-11T01:42:06.117Z,456.27
2022-10-11T01:44:56.102Z,454.95
2022-10-11T01:47:46.626Z,451.63
2022-10-11T01:50:40.227Z,488.98
2022-10-11T01:53:59.663Z,465.17
2022-10-11T01:57:02.615Z,466.08
2022-10-11T02:00:03.351Z,453.33
2022-10-11T02:03:14.149Z,441.27
2022-10-11T02:06:09.478Z,452.95
2022-10-11T02:09:08.067Z,462.55
2022-10-11T02:12:00.009Z,476.00
2022-10-11T02:14:51.748Z,441.08
2022-10-11T02:17:45.481Z,445.40
2022-10-11T02:20:35.592Z,450.98
2022-10-11T02:23:27.534Z,458.70
2022-10-11T02:26:15.813Z,467.58
2022-10-11T02:29:06.449Z,448.40
2022-10-11T02:31:56.617Z,455.60
2022-10-11T02:34:48.234Z,460.25
2022-10-11T02:37:44.359Z,462.55
2022-10-11T02:40:35.324Z,464.90
2022-10-11T02:43:30.824Z,455.63
2022-10-11T02:46:19.136Z,479.33
2022-10-11T02:49:09.340Z,461.02
2022-10-11T02:51:57.793Z,468.00
2022-10-11T02:54:47.124Z,472.63
2022-10-11T02:57:35.184Z,443.58
2022-10-11T03:00:23.144Z,462.95
2022-10-11T03:03:11.080Z,466.55
2022-10-11T03:05:59.735Z,452.80
2022-10-11T03:08:47.611Z,455.92
2022-10-11T03:11:36.869Z,443.50
2022-10-11T03:14:25.255Z,446.48
2022-10-11T03:17:34.984Z,441.25
2022-10-11T03:20:21.435Z,434.00
2022-10-11T03:23:09.465Z,460.85
2022-10-11T03:25:57.353Z,446.85
2022-10-11T03:28:46.653Z,451.63
2022-10-11T03:31:34.707Z,427.50
2022-10-11T03:34:22.604Z,438.65
2022-10-11T03:37:10.562Z,439.35
2022-10-11T03:39:58.458Z,424.02
2022-10-11T03:42:46.381Z,437.17
2022-10-11T03:45:35.650Z,437.38
2022-10-11T03:48:23.501Z,419.35
2022-10-11T03:51:13.034Z,413.23
2022-10-11T03:54:00.921Z,436.48
2022-10-11T03:56:48.800Z,444.40
2022-10-11T03:59:36.661Z,405.30
2022-10-11T04:02:25.983Z,417.98
2022-10-11T04:05:13.882Z,400.40
2022-10-11T04:08:01.802Z,410.13
2022-10-11T04:10:49.973Z,417.45
2022-10-11T04:13:37.898Z,405.70
2022-10-11T04:16:25.946Z,409.65
2022-10-11T04:19:15.212Z,415.95
2022-10-11T04:22:03.113Z,398.77
2022-10-11T04:24:51.042Z,408.20
2022-10-11T04:27:38.881Z,392.30
2022-10-11T04:30:26.792Z,399.35
2022-10-11T04:33:14.730Z,402.52
2022-10-11T04:36:04.611Z,378.77
2022-10-11T04:38:52.698Z,400.85
2022-10-11T04:41:40.665Z,382.13
2022-10-11T04:44:28.541Z,394.23
2022-10-11T04:47:16.736Z,396.27
2022-10-11T04:50:05.144Z,396.85
2022-10-11T04:52:54.381Z,385.67
2022-10-11T04:55:42.272Z,380.85
2022-10-11T04:58:31.419Z,387.20
2022-10-11T05:01:19.279Z,380.60
2022-10-11T05:04:07.157Z,380.00
2022-10-11T05:06:55.458Z,364.55
2022-10-11T05:09:44.694Z,380.20
2022-10-11T05:12:32.573Z,387.65
2022-10-11T05:15:20.463Z,363.87
2022-10-11T05:18:08.334Z,370.93
2022-10-11T05:21:01.607Z,352.27
2022-10-11T05:23:51.113Z,365.80
2022-10-11T05:26:40.412Z,358.85
2022-10-11T05:29:28.352Z,362.58
2022-10-11T05:32:16.276Z,365.77
2022-10-11T05:35:04.320Z,380.57
2022-10-11T05:37:52.236Z,348.37
2022-10-11T05:40:40.960Z,368.33
2022-10-11T05:43:30.555Z,367.87
2022-10-11T05:46:18.492Z,351.40
2022-10-11T05:49:06.394Z,369.92
2022-10-11T05:51:54.303Z,344.37
2022-10-11T05:54:42.174Z,348.17
2022-10-11T05:57:30.103Z,351.27
2022-10-11T06:00:19.594Z,350.48
2022-10-11T06:03:09.252Z,331.50
2022-10-11T06:05:57.472Z,333.57
2022-10-11T06:08:46.056Z,345.87
2022-10-11T06:11:34.804Z,331.13
2022-10-11T06:14:15.889Z,362.33
2022-10-11T06:16:44.839Z,367.97
2022-10-11T06:19:12.494Z,362.15
2022-10-11T06:21:40.143Z,363.90
2022-10-11T06:24:09.244Z,359.47
2022-10-11T06:26:36.881Z,366.97
2022-10-11T06:29:04.837Z,390.93
2022-10-11T06:31:32.820Z,356.60
2022-10-11T06:34:01.756Z,352.83
2022-10-11T06:36:29.821Z,348.70
2022-10-11T06:38:57.419Z,371.30
2022-10-11T06:41:27.559Z,357.17
2022-10-11T06:43:55.628Z,373.33
2022-10-11T06:46:25.720Z,348.45
2022-10-11T06:48:53.870Z,348.77
2022-10-11T06:51:23.856Z,356.75
2022-10-11T06:53:52.592Z,350.92
2022-10-11T06:56:20.560Z,350.77
2022-10-11T06:58:48.474Z,364.90
2022-10-11T07:01:18.965Z,365.75
2022-10-11T07:03:47.141Z,385.60
2022-10-11T07:06:17.871Z,367.67
2022-10-11T07:08:46.962Z,354.98
2022-10-11T07:11:17.022Z,372.38
2022-10-11T07:13:49.679Z,364.40
2022-10-11T07:16:17.933Z,344.10
2022-10-11T07:18:46.111Z,362.38
2022-10-11T07:21:16.842Z,345.08
2022-10-11T07:23:44.519Z,365.63
2022-10-11T07:26:13.742Z,363.73
2022-10-11T07:28:43.944Z,377.23
2022-10-11T07:31:15.506Z,369.10
2022-10-11T07:33:43.558Z,368.17
2022-10-11T07:36:12.740Z,358.83
2022-10-11T07:38:41.430Z,375.95
2022-10-11T07:41:10.261Z,340.20
2022-10-11T07:43:39.802Z,374.48
2022-10-11T07:46:08.527Z,355.77
2022-10-11T07:48:37.714Z,394.20
2022-10-11T07:51:07.271Z,357.27
2022-10-11T07:53:39.727Z,379.65
2022-10-11T07:56:08.735Z,355.65
2022-10-11T07:58:36.800Z,359.17
2022-10-11T08:01:06.305Z,357.98
2022-10-11T08:03:34.458Z,376.38
2022-10-11T08:06:03.269Z,379.92
2022-10-11T08:08:31.332Z,358.30
2022-10-11T08:10:59.351Z,365.65
2022-10-11T08:13:27.453Z,362.67
2022-10-11T08:15:55.190Z,360.40
2022-10-11T08:18:24.313Z,340.92
2022-10-11T08:20:52.212Z,356.77
2022-10-11T08:23:20.706Z,353.20
2022-10-11T08:25:48.775Z,375.52
2022-10-11T08:28:17.676Z,345.73
2022-10-11T08:30:49.877Z,368.85
2022-10-11T08:33:17.852Z,362.80
2022-10-11T08:35:47.341Z,339.02
2022-10-11T08:38:15.240Z,371.05
2022-10-11T08:40:47.637Z,372.13
2022-10-11T08:43:28.914Z,352.60
2022-10-11T08:46:00.957Z,359.20
2022-10-11T08:48:35.482Z,363.17
2022-10-11T08:51:09.973Z,339.70
2022-10-11T08:53:46.809Z,375.55
2022-10-11T08:56:15.953Z,358.02
2022-10-11T08:58:49.082Z,334.95
2022-10-11T09:01:20.885Z,342.98
2022-10-11T09:03:50.137Z,367.52
2022-10-11T09:06:43.696Z,352.08
2022-10-11T09:09:29.100Z,363.63
2022-10-11T09:12:11.478Z,340.63
2022-10-11T09:15:04.538Z,352.48
2022-10-11T09:17:45.849Z,393.85
2022-10-11T09:20:28.120Z,374.95
2022-10-11T09:23:02.416Z,396.90
2022-10-11T09:25:34.400Z,398.77
2022-10-11T09:28:13.189Z,400.88
2022-10-11T09:30:47.477Z,381.75
2022-10-11T09:33:20.724Z,399.10
2022-10-11T09:35:50.114Z,407.63
2022-10-11T09:38:38.250Z,403.27
2022-10-11T09:41:15.662Z,401.95
2022-10-11T09:43:48.424Z,407.88
2022-10-11T09:46:23.859Z,392.67
2022-10-11T09:48:54.430Z,397.90
2022-10-11T09:51:25.030Z,397.13
2022-10-11T09:53:59.373Z,384.85
2022-10-11T09:56:29.937Z,371.80
2022-10-11T09:59:25.967Z,401.70
2022-10-11T10:02:19.614Z,409.13
2022-10-11T10:05:00.952Z,392.67
2022-10-11T10:07:29.982Z,377.35
2022-10-11T10:09:59.695Z,389.40
2022-10-11T10:12:29.716Z,403.40
2022-10-11T10:15:06.033Z,411.83
2022-10-11T10:17:34.026Z,405.15
2022-10-11T10:20:05.309Z,416.27
2022-10-11T10:22:36.037Z,400.75
2022-10-11T10:25:09.239Z,426.27
2022-10-11T10:27:37.141Z,424.33
2022-10-11T10:30:22.933Z,444.48
2022-10-11T10:32:56.552Z,418.45
2022-10-11T10:35:38.323Z,430.25
2022-10-11T10:38:20.721Z,430.40
2022-10-11T10:40:53.971Z,432.85
2022-10-11T10:43:24.873Z,449.73
2022-10-11T10:46:22.814Z,444.63
2022-10-11T10:51:52.637Z,438.05
2022-10-11T10:54:32.989Z,443.65
2022-10-11T10:57:05.510Z,445.75
2022-10-11T10:59:45.513Z,432.77
2022-10-11T11:02:40.880Z,432.67
2022-10-11T11:05:18.737Z,429.98
2022-10-11T11:07:50.872Z,437.30
2022-10-11T11:10:22.651Z,443.42
2022-10-11T11:13:02.399Z,453.67
2022-10-11T11:15:38.286Z,446.50
2022-10-11T11:18:25.774Z,431.95
2022-10-11T11:21:10.092Z,434.00
2022-10-11T11:23:45.184Z,393.77
2022-10-11T11:26:23.470Z,420.45
2022-10-11T11:29:03.470Z,411.95
2022-10-11T11:31:55.919Z,409.73
2022-10-11T11:34:27.349Z,412.95
2022-10-11T11:36:59.041Z,439.27
2022-10-11T11:39:31.107Z,421.65
2022-10-11T11:42:05.074Z,434.15
2022-10-11T11:44:37.600Z,437.83
2022-10-11T11:47:11.998Z,417.10
2022-10-11T11:52:24.048Z,422.30
2022-10-11T11:55:03.814Z,433.10
2022-10-11T11:57:45.738Z,452.42
2022-10-11T12:00:18.817Z,432.02
2022-10-11T12:02:52.253Z,440.35
2022-10-11T12:05:22.269Z,432.88
2022-10-11T12:07:55.051Z,389.98
2022-10-11T12:10:34.173Z,408.17
2022-10-11T12:13:21.233Z,403.23
2022-10-11T12:16:10.792Z,396.13
2022-10-11T12:18:51.862Z,395.55
2022-10-11T12:21:25.790Z,416.02
2022-10-11T12:23:54.730Z,433.30
2022-10-11T12:26:44.243Z,410.92
2022-10-11T12:29:42.469Z,413.85
2022-10-11T12:32:50.958Z,413.95
2022-10-11T12:36:05.565Z,413.52
2022-10-11T12:38:39.896Z,408.05
2022-10-11T12:41:49.011Z,409.80
2022-10-11T12:44:23.403Z,399.23
2022-10-11T12:47:23.927Z,388.88
2022-10-11T12:50:03.589Z,407.25
2022-10-11T12:52:40.785Z,390.27
2022-10-11T12:55:34.161Z,398.30
2022-10-11T12:58:26.041Z,399.40
2022-10-11T13:01:22.786Z,370.50
2022-10-11T13:04:03.966Z,375.75
2022-10-11T13:06:34.793Z,380.25
2022-10-11T13:09:06.431Z,388.17
2022-10-11T13:11:40.078Z,363.42
2022-10-11T13:14:11.600Z,369.67
2022-10-11T13:16:56.664Z,391.63
2022-10-11T13:19:24.738Z,375.88
2022-10-11T13:22:17.212Z,382.55
2022-10-11T13:24:44.883Z,375.67
2022-10-11T13:27:19.644Z,394.83
2022-10-11T13:29:48.751Z,379.02
2022-10-11T13:32:20.581Z,379.60
2022-10-11T13:34:50.950Z,375.40
2022-10-11T13:37:22.200Z,367.92
2022-10-11T13:39:52.907Z,372.83
2022-10-11T13:42:26.421Z,378.73
2022-10-11T13:44:54.150Z,374.83
2022-10-11T13:47:26.906Z,390.48
2022-10-11T13:50:04.701Z,369.23
2022-10-11T13:52:33.383Z,391.27
2022-10-11T13:55:22.808Z,375.20
2022-10-11T13:57:52.749Z,380.02
2022-10-11T14:00:30.044Z,364.30
2022-10-11T14:03:01.596Z,359.48
2022-10-11T14:05:35.310Z,379.15
2022-10-11T14:08:06.258Z,377.63
2022-10-11T14:10:34.935Z,376.98
2022-10-11T14:13:23.697Z,361.17
2022-10-11T14:16:29.331Z,373.70
2022-10-11T14:19:10.303Z,364.50
2022-10-11T14:21:51.159Z,380.85
2022-10-11T14:24:19.565Z,381.42
2022-10-11T14:26:49.929Z,371.23
2022-10-11T14:29:24.665Z,367.25
2022-10-11T14:31:56.233Z,366.33
2022-10-11T14:34:26.579Z,369.35
2022-10-11T14:36:54.595Z,374.42
2022-10-11T14:39:24.395Z,384.75
2022-10-11T14:41:53.047Z,359.38
2022-10-11T14:44:23.529Z,386.90
2022-10-11T14:46:54.551Z,379.15
2022-10-11T14:49:24.960Z,382.85
2022-10-11T14:51:54.762Z,370.63
2022-10-11T14:54:24.888Z,389.25
2022-10-11T14:56:54.633Z,392.25
2022-10-11T14:59:26.605Z,386.05
2022-10-11T15:01:54.694Z,394.20
2022-10-11T15:04:24.571Z,378.15
2022-10-11T15:06:53.500Z,389.58
2022-10-11T15:09:21.550Z,388.73
2022-10-11T15:11:50.061Z,411.73
2022-10-11T15:14:18.024Z,402.98
2022-10-11T15:16:47.149Z,405.70
2022-10-11T15:19:16.589Z,392.95
2022-10-11T15:21:45.100Z,416.80
2022-10-11T15:24:13.190Z,416.85
2022-10-11T15:26:41.175Z,400.77
2022-10-11T15:29:11.741Z,417.48
2022-10-11T15:31:39.426Z,411.63
2022-10-11T15:34:08.415Z,434.65
2022-10-11T15:36:36.050Z,398.20
2022-10-11T15:39:03.967Z,430.33
2022-10-11T15:41:31.574Z,388.33
2022-10-11T15:43:59.163Z,406.25
2022-10-11T15:46:26.781Z,412.13
2022-10-11T15:48:54.528Z,411.13
2022-10-11T15:51:23.477Z,407.60
2022-10-11T15:53:51.041Z,412.95
2022-10-11T15:56:19.585Z,409.55
2022-10-11T15:58:47.652Z,421.15
2022-10-11T16:01:18.655Z,407.70
2022-10-11T16:03:47.380Z,424.15
2022-10-11T16:06:15.524Z,420.35
2022-10-11T16:08:44.789Z,412.67
2022-10-11T16:11:13.965Z,424.13
2022-10-11T16:13:41.982Z,437.75
2022-10-11T16:16:11.937Z,417.35
2022-10-11T16:18:39.723Z,426.30
2022-10-11T16:21:10.130Z,435.52
2022-10-11T16:23:38.247Z,413.65
2022-10-11T16:26:09.852Z,438.90
2022-10-11T16:28:38.673Z,409.42
2022-10-11T16:31:10.664Z,404.58
2022-10-11T16:33:45.415Z,418.85
2022-10-11T16:36:31.711Z,404.67
2022-10-11T16:39:00.097Z,403.58
2022-10-11T16:41:29.006Z,410.35
2022-10-11T16:43:57.142Z,393.48
2022-10-11T16:46:25.101Z,408.27
2022-10-11T16:48:55.277Z,403.17
2022-10-11T16:51:23.978Z,397.88
2022-10-11T16:53:52.134Z,404.17
2022-10-11T16:56:22.400Z,389.33
2022-10-11T16:58:52.297Z,382.17
2022-10-11T17:01:20.140Z,373.30
2022-10-11T17:03:49.431Z,374.33
2022-10-11T17:06:17.171Z,374.75
2022-10-11T17:08:44.782Z,356.42
2022-10-11T17:11:12.676Z,362.55
2022-10-11T17:13:40.322Z,360.38
2022-10-11T17:16:09.696Z,370.02
2022-10-11T17:18:37.704Z,357.25
2022-10-11T17:21:08.411Z,354.98
2022-10-11T17:23:36.853Z,350.50
2022-10-11T17:26:10.994Z,326.85
2022-10-11T17:28:39.282Z,346.13
2022-10-11T17:31:07.493Z,356.90
2022-10-11T17:33:36.827Z,352.25
2022-10-11T17:36:14.268Z,345.80
2022-10-11T17:38:42.002Z,329.95
2022-10-11T17:41:09.786Z,351.25
2022-10-11T17:43:38.366Z,345.17
2022-10-11T17:46:07.282Z,342.95
2022-10-11T17:48:39.120Z,330.45
2022-10-11T17:51:09.126Z,326.77
2022-10-11T17:53:38.017Z,340.02
2022-10-11T17:56:07.629Z,339.40
2022-10-11T17:58:35.773Z,330.77
2022-10-11T18:01:06.162Z,342.00
2022-10-11T18:03:34.244Z,336.33
2022-10-11T18:06:05.539Z,335.63
2022-10-11T18:08:39.769Z,333.75
2022-10-11T18:11:11.566Z,317.33
2022-10-11T18:13:42.364Z,305.55
2022-10-11T18:16:11.134Z,330.65
2022-10-11T18:18:39.610Z,329.85
2022-10-11T18:21:08.745Z,320.52
2022-10-11T18:23:38.231Z,343.17
2022-10-11T18:26:10.855Z,312.85
2022-10-11T18:28:38.626Z,313.05
2022-10-11T18:31:12.627Z,326.40
2022-10-11T18:33:41.938Z,332.60
2022-10-11T18:36:13.488Z,321.23
2022-10-11T18:38:46.142Z,310.13
2022-10-11T18:41:16.446Z,308.25
2022-10-11T18:43:48.752Z,309.90
2022-10-11T18:46:16.563Z,301.63
2022-10-11T18:48:46.296Z,302.65
2022-10-11T18:51:18.289Z,305.65
2022-10-11T18:53:46.695Z,315.30
2022-10-11T18:56:16.152Z,294.52
2022-10-11T18:58:45.029Z,304.45
2022-10-11T19:01:16.386Z,325.98
2022-10-11T19:03:44.657Z,299.65
2022-10-11T19:06:17.718Z,315.15
2022-10-11T19:08:45.651Z,318.75
2022-10-11T19:11:13.969Z,311.60
2022-10-11T19:13:41.605Z,315.58
2022-10-11T19:16:12.031Z,338.75
2022-10-11T19:18:44.033Z,311.83
2022-10-11T19:21:14.418Z,322.95
2022-10-11T19:23:45.079Z,304.33
2022-10-11T19:26:14.794Z,285.33
2022-10-11T19:28:43.240Z,307.02
2022-10-11T19:31:14.291Z,301.40
2022-10-11T19:33:41.883Z,288.65
2022-10-11T19:36:12.765Z,313.23
2022-10-11T19:38:40.945Z,288.83
2022-10-11T19:41:09.970Z,309.45
2022-10-11T19:43:37.645Z,300.65
2022-10-11T19:46:07.081Z,313.63
2022-10-11T19:48:37.595Z,310.90
2022-10-11T19:51:07.975Z,311.33
2022-10-11T19:53:36.330Z,299.73
2022-10-11T19:56:05.284Z,303.13
2022-10-11T19:58:34.373Z,295.13
2022-10-11T20:01:03.836Z,315.02
2022-10-11T20:03:53.845Z,302.52
2022-10-11T20:06:42.754Z,295.52
2022-10-11T20:09:31.190Z,291.95
2022-10-11T20:12:19.289Z,282.25
2022-10-11T20:15:09.431Z,286.30
2022-10-11T20:17:57.651Z,272.58
2022-10-11T20:20:52.796Z,296.50
2022-10-11T20:26:35.435Z,267.73
2022-10-11T20:29:25.149Z,285.95
2022-10-11T20:32:14.367Z,282.67
2022-10-11T20:35:03.284Z,256.63
2022-10-11T20:37:53.501Z,274.50
2022-10-11T20:40:41.514Z,262.98
2022-10-11T20:43:29.386Z,291.03
2022-10-11T20:46:18.992Z,265.43
2022-10-11T20:49:09.698Z,258.33
2022-10-11T20:51:57.623Z,272.47
2022-10-11T20:54:45.609Z,277.63
2022-10-11T20:57:33.730Z,269.50
2022-10-11T21:00:22.991Z,266.77
2022-10-11T21:03:11.347Z,278.60
2022-10-11T21:06:00.989Z,272.17
2022-10-11T21:08:48.963Z,263.87
2022-10-11T21:11:36.869Z,273.40
2022-10-11T21:14:24.801Z,259.80
2022-10-11T21:17:12.705Z,258.70
2022-10-11T21:20:03.478Z,254.37
2022-10-11T21:22:52.785Z,254.13
2022-10-11T21:25:41.255Z,244.30
2022-10-11T21:28:29.563Z,255.77
2022-10-11T21:31:19.704Z,263.93
2022-10-11T21:34:07.753Z,262.47
2022-10-11T21:36:55.692Z,265.58
2022-10-11T21:39:45.075Z,275.47
2022-10-11T21:42:33.026Z,251.93
2022-10-11T21:45:20.921Z,261.00
2022-10-11T21:48:08.954Z,247.30
2022-10-11T21:50:56.903Z,255.30
2022-10-11T21:53:44.828Z,266.90
2022-10-11T21:56:34.093Z,282.40
2022-10-11T21:59:21.985Z,270.88
2022-10-11T22:02:09.983Z,283.70
2022-10-11T22:04:57.901Z,270.02
2022-10-11T22:07:46.383Z,290.55
2022-10-11T22:10:35.037Z,281.63
2022-10-11T22:13:24.772Z,277.98
2022-10-11T22:16:14.447Z,295.52
2022-10-11T22:19:02.399Z,289.50
2022-10-11T22:21:50.377Z,310.30
2022-10-11T22:24:38.275Z,306.98
2022-10-11T22:27:26.265Z,299.25
2022-10-11T22:30:15.518Z,293.65
2022-10-11T22:33:03.643Z,292.67
2022-10-11T22:35:54.711Z,298.88
2022-10-11T22:38:43.732Z,293.88
2022-10-11T22:41:31.596Z,299.40
2022-10-11T22:44:19.479Z,282.38
2022-10-11T22:47:08.723Z,298.05
2022-10-11T22:49:56.621Z,288.95
2022-10-11T22:52:44.508Z,281.50
2022-10-11T22:55:32.511Z,275.80
2022-10-11T22:58:20.431Z,285.87
2022-10-11T23:01:09.290Z,264.63
2022-10-11T23:03:58.771Z,268.53
2022-10-11T23:06:46.739Z,258.60
2022-10-11T23:09:34.676Z,263.77
2022-10-11T23:12:22.592Z,268.80
2022-10-11T23:15:11.445Z,277.80
2022-10-11T23:17:59.343Z,261.47
2022-10-11T23:20:48.588Z,275.02
2022-10-11T23:23:36.968Z,261.97
2022-10-11T23:26:24.870Z,265.47
2022-10-11T23:29:12.745Z,250.63
2022-10-11T23:32:00.662Z,260.03
2022-10-11T23:34:48.520Z,257.23
2022-10-11T23:37:38.188Z,270.87
2022-10-11T23:40:26.384Z,256.73
2022-10-11T23:43:14.251Z,251.80
2022-10-11T23:46:02.169Z,250.00
2022-10-11T23:48:50.101Z,245.03
2022-10-11T23:51:38.260Z,261.27
2022-10-11T23:54:27.494Z,254.23
2022-10-11T23:57:15.410Z,261.90
